sensor_id;sensor_type;location;lat;lon;timestamp;temperature;humidity
36442;DHT22;73131;50.820;16.274;2024-01-16T00:01:11;0.20;99.90
36442;DHT22;73131;50.820;16.274;2024-01-16T00:04:22;0.30;99.90
36442;DHT22;73131;50.820;16.274;2024-01-16T00:07:23;0.30;99.90
36442;DHT22;73131;50.820;16.274;2024-01-16T00:10:24;0.30;99.90
36442;DHT22;73131;50.820;16.274;2024-01-16T00:13:25;0.30;99.90
36442;DHT22;73131;50.820;16.274;2024-01-16T00:16:29;0.30;99.90
36442;DHT22;73131;50.820;16.274;2024-01-16T00:19:29;0.20;99.90
36442;DHT22;73131;50.820;16.274;2024-01-16T00:22:31;0.20;99.90
36442;DHT22;73131;50.820;16.274;2024-01-16T00:25:32;0.20;99.90
36442;DHT22;73131;50.820;16.274;2024-01-16T00:28:33;0.10;99.90
36442;DHT22;73131;50.820;16.274;2024-01-16T00:31:34;0.20;99.90
36442;DHT22;73131;50.820;16.274;2024-01-16T00:34:35;0.20;99.90
36442;DHT22;73131;50.820;16.274;2024-01-16T00:37:37;0.20;99.90
36442;DHT22;73131;50.820;16.274;2024-01-16T00:40:40;0.30;99.90
36442;DHT22;73131;50.820;16.274;2024-01-16T00:43:45;0.30;99.90
36442;DHT22;73131;50.820;16.274;2024-01-16T00:46:46;0.30;99.90
36442;DHT22;73131;50.820;16.274;2024-01-16T00:49:47;0.30;99.90
36442;DHT22;73131;50.820;16.274;2024-01-16T00:52:51;0.20;99.90
36442;DHT22;73131;50.820;16.274;2024-01-16T00:55:54;0.20;99.90
36442;DHT22;73131;50.820;16.274;2024-01-16T00:58:55;0.10;99.90
36442;DHT22;73131;50.820;16.274;2024-01-16T01:01:56;0.10;99.90
36442;DHT22;73131;50.820;16.274;2024-01-16T01:04:59;0.10;99.90
36442;DHT22;73131;50.820;16.274;2024-01-16T01:08:02;0.10;99.90
36442;DHT22;73131;50.820;16.274;2024-01-16T01:11:06;0.10;99.90
36442;DHT22;73131;50.820;16.274;2024-01-16T01:14:11;0.10;99.90
36442;DHT22;73131;50.820;16.274;2024-01-16T01:17:12;0.10;99.90
36442;DHT22;73131;50.820;16.274;2024-01-16T01:20:13;0.10;99.90
36442;DHT22;73131;50.820;16.274;2024-01-16T01:23:14;0.20;99.90
36442;DHT22;73131;50.820;16.274;2024-01-16T01:26:15;0.20;99.90
36442;DHT22;73131;50.820;16.274;2024-01-16T01:29:21;0.10;99.90
36442;DHT22;73131;50.820;16.274;2024-01-16T01:32:24;0.10;99.90
36442;DHT22;73131;50.820;16.274;2024-01-16T01:35:27;0.20;99.90
36442;DHT22;73131;50.820;16.274;2024-01-16T01:38:28;0.20;99.90
36442;DHT22;73131;50.820;16.274;2024-01-16T01:41:29;0.20;99.90
36442;DHT22;73131;50.820;16.274;2024-01-16T01:44:30;0.20;99.90
36442;DHT22;73131;50.820;16.274;2024-01-16T01:47:32;0.20;99.90
36442;DHT22;73131;50.820;16.274;2024-01-16T01:50:33;0.20;99.90
36442;DHT22;73131;50.820;16.274;2024-01-16T01:53:35;0.20;99.90
36442;DHT22;73131;50.820;16.274;2024-01-16T01:56:36;0.10;99.90
36442;DHT22;73131;50.820;16.274;2024-01-16T01:59:37;0.20;99.90
36442;DHT22;73131;50.820;16.274;2024-01-16T02:02:41;0.10;99.90
36442;DHT22;73131;50.820;16.274;2024-01-16T02:05:43;0.10;99.90
36442;DHT22;73131;50.820;16.274;2024-01-16T02:08:47;0.10;99.90
36442;DHT22;73131;50.820;16.274;2024-01-16T02:11:50;0.10;99.90
36442;DHT22;73131;50.820;16.274;2024-01-16T02:14:53;0.20;99.90
36442;DHT22;73131;50.820;16.274;2024-01-16T02:17:54;0.20;99.90
36442;DHT22;73131;50.820;16.274;2024-01-16T02:21:00;0.20;99.90
36442;DHT22;73131;50.820;16.274;2024-01-16T02:24:05;0.20;99.90
36442;DHT22;73131;50.820;16.274;2024-01-16T02:27:07;0.10;99.90
36442;DHT22;73131;50.820;16.274;2024-01-16T02:30:08;0.10;99.90
36442;DHT22;73131;50.820;16.274;2024-01-16T02:33:09;0.10;99.90
36442;DHT22;73131;50.820;16.274;2024-01-16T02:36:11;0.10;99.90
36442;DHT22;73131;50.820;16.274;2024-01-16T02:39:11;0.10;99.90
36442;DHT22;73131;50.820;16.274;2024-01-16T02:42:16;0.10;99.90
36442;DHT22;73131;50.820;16.274;2024-01-16T02:45:21;0.10;99.90
36442;DHT22;73131;50.820;16.274;2024-01-16T02:48:22;0.10;99.90
36442;DHT22;73131;50.820;16.274;2024-01-16T02:51:27;0.10;99.90
36442;DHT22;73131;50.820;16.274;2024-01-16T02:54:28;0.10;99.90
36442;DHT22;73131;50.820;16.274;2024-01-16T02:57:29;0.20;99.90
36442;DHT22;73131;50.820;16.274;2024-01-16T03:00:30;0.10;99.90
36442;DHT22;73131;50.820;16.274;2024-01-16T03:03:31;0.10;99.90
36442;DHT22;73131;50.820;16.274;2024-01-16T03:06:35;0.10;99.90
36442;DHT22;73131;50.820;16.274;2024-01-16T03:09:35;0.10;99.90
36442;DHT22;73131;50.820;16.274;2024-01-16T03:12:37;0.00;99.90
36442;DHT22;73131;50.820;16.274;2024-01-16T03:15:40;-0.10;99.90
36442;DHT22;73131;50.820;16.274;2024-01-16T03:18:42;0.00;99.90
36442;DHT22;73131;50.820;16.274;2024-01-16T03:21:45;0.00;99.90
36442;DHT22;73131;50.820;16.274;2024-01-16T03:24:48;0.00;99.90
36442;DHT22;73131;50.820;16.274;2024-01-16T03:27:49;0.00;99.90
36442;DHT22;73131;50.820;16.274;2024-01-16T03:30:54;0.00;99.90
36442;DHT22;73131;50.820;16.274;2024-01-16T03:33:55;0.10;99.90
36442;DHT22;73131;50.820;16.274;2024-01-16T03:36:57;0.00;99.90
36442;DHT22;73131;50.820;16.274;2024-01-16T03:39:58;0.00;99.90
36442;DHT22;73131;50.820;16.274;2024-01-16T03:43:01;0.00;99.90
36442;DHT22;73131;50.820;16.274;2024-01-16T03:46:02;0.00;99.90
36442;DHT22;73131;50.820;16.274;2024-01-16T03:49:06;0.00;99.90
36442;DHT22;73131;50.820;16.274;2024-01-16T03:52:07;-0.10;99.90
36442;DHT22;73131;50.820;16.274;2024-01-16T03:55:08;0.00;99.90
36442;DHT22;73131;50.820;16.274;2024-01-16T03:58:11;-0.10;99.90
36442;DHT22;73131;50.820;16.274;2024-01-16T04:01:15;0.00;99.90
36442;DHT22;73131;50.820;16.274;2024-01-16T04:04:16;0.00;99.90
36442;DHT22;73131;50.820;16.274;2024-01-16T04:07:17;0.00;99.90
36442;DHT22;73131;50.820;16.274;2024-01-16T04:10:18;0.00;99.90
36442;DHT22;73131;50.820;16.274;2024-01-16T04:13:19;0.00;99.90
36442;DHT22;73131;50.820;16.274;2024-01-16T04:16:20;-0.10;99.90
36442;DHT22;73131;50.820;16.274;2024-01-16T04:19:21;-0.10;99.90
36442;DHT22;73131;50.820;16.274;2024-01-16T04:22:24;-0.10;99.90
36442;DHT22;73131;50.820;16.274;2024-01-16T04:25:25;-0.10;99.90
36442;DHT22;73131;50.820;16.274;2024-01-16T04:28:26;0.00;99.90
36442;DHT22;73131;50.820;16.274;2024-01-16T04:31:27;0.00;99.90
36442;DHT22;73131;50.820;16.274;2024-01-16T04:34:30;0.00;99.90
36442;DHT22;73131;50.820;16.274;2024-01-16T04:37:35;-0.10;99.90
36442;DHT22;73131;50.820;16.274;2024-01-16T04:40:36;-0.20;99.90
36442;DHT22;73131;50.820;16.274;2024-01-16T04:43:37;-0.40;99.90
36442;DHT22;73131;50.820;16.274;2024-01-16T04:46:40;-0.50;99.90
36442;DHT22;73131;50.820;16.274;2024-01-16T04:49:42;-0.60;99.90
36442;DHT22;73131;50.820;16.274;2024-01-16T04:52:43;-0.70;99.90
36442;DHT22;73131;50.820;16.274;2024-01-16T04:55:46;-0.80;99.90
36442;DHT22;73131;50.820;16.274;2024-01-16T04:58:47;-0.90;99.90
36442;DHT22;73131;50.820;16.274;2024-01-16T05:01:48;-0.90;99.90
36442;DHT22;73131;50.820;16.274;2024-01-16T05:04:49;-0.90;99.90
36442;DHT22;73131;50.820;16.274;2024-01-16T05:07:53;-1.00;99.90
36442;DHT22;73131;50.820;16.274;2024-01-16T05:10:54;-0.90;99.90
36442;DHT22;73131;50.820;16.274;2024-01-16T05:13:55;-0.90;99.90
36442;DHT22;73131;50.820;16.274;2024-01-16T05:16:58;-0.90;99.90
36442;DHT22;73131;50.820;16.274;2024-01-16T05:20:02;-0.90;99.90
36442;DHT22;73131;50.820;16.274;2024-01-16T05:23:06;-0.90;99.90
36442;DHT22;73131;50.820;16.274;2024-01-16T05:26:07;-0.90;99.90
36442;DHT22;73131;50.820;16.274;2024-01-16T05:29:11;-0.90;99.90
36442;DHT22;73131;50.820;16.274;2024-01-16T05:32:14;-0.90;99.90
36442;DHT22;73131;50.820;16.274;2024-01-16T05:35:15;-1.00;99.90
36442;DHT22;73131;50.820;16.274;2024-01-16T05:38:16;-1.10;99.90
36442;DHT22;73131;50.820;16.274;2024-01-16T05:41:19;-1.10;99.90
36442;DHT22;73131;50.820;16.274;2024-01-16T05:44:22;-1.10;99.90
36442;DHT22;73131;50.820;16.274;2024-01-16T05:47:25;-1.10;99.90
36442;DHT22;73131;50.820;16.274;2024-01-16T05:50:29;-1.10;99.90
36442;DHT22;73131;50.820;16.274;2024-01-16T05:53:30;-1.10;99.90
36442;DHT22;73131;50.820;16.274;2024-01-16T05:56:31;-1.10;99.90
36442;DHT22;73131;50.820;16.274;2024-01-16T05:59:34;-1.10;99.90
36442;DHT22;73131;50.820;16.274;2024-01-16T06:02:35;-1.10;99.90
36442;DHT22;73131;50.820;16.274;2024-01-16T06:05:38;-1.10;99.90
36442;DHT22;73131;50.820;16.274;2024-01-16T06:08:40;-1.10;99.90
36442;DHT22;73131;50.820;16.274;2024-01-16T06:11:40;-1.10;99.90
36442;DHT22;73131;50.820;16.274;2024-01-16T06:14:42;-1.20;99.90
36442;DHT22;73131;50.820;16.274;2024-01-16T06:17:42;-1.10;99.90
36442;DHT22;73131;50.820;16.274;2024-01-16T06:20:43;-1.00;99.90
36442;DHT22;73131;50.820;16.274;2024-01-16T06:23:44;-0.90;99.90
36442;DHT22;73131;50.820;16.274;2024-01-16T06:26:48;-0.90;99.90
36442;DHT22;73131;50.820;16.274;2024-01-16T06:29:49;-0.90;99.90
36442;DHT22;73131;50.820;16.274;2024-01-16T06:32:54;-0.90;99.90
36442;DHT22;73131;50.820;16.274;2024-01-16T06:35:58;-0.90;99.90
36442;DHT22;73131;50.820;16.274;2024-01-16T06:39:06;-0.90;99.90
36442;DHT22;73131;50.820;16.274;2024-01-16T06:42:07;-0.90;99.90
36442;DHT22;73131;50.820;16.274;2024-01-16T06:45:10;-0.80;99.90
36442;DHT22;73131;50.820;16.274;2024-01-16T06:48:13;-0.70;99.90
36442;DHT22;73131;50.820;16.274;2024-01-16T06:51:14;-0.70;99.90
36442;DHT22;73131;50.820;16.274;2024-01-16T06:54:18;-0.70;99.90
36442;DHT22;73131;50.820;16.274;2024-01-16T06:57:23;-0.70;99.90
36442;DHT22;73131;50.820;16.274;2024-01-16T07:00:24;-0.70;99.90
36442;DHT22;73131;50.820;16.274;2024-01-16T07:03:27;-0.70;99.90
36442;DHT22;73131;50.820;16.274;2024-01-16T07:06:28;-0.70;99.90
36442;DHT22;73131;50.820;16.274;2024-01-16T07:09:29;-0.80;99.90
36442;DHT22;73131;50.820;16.274;2024-01-16T07:12:30;-0.80;99.90
36442;DHT22;73131;50.820;16.274;2024-01-16T07:15:31;-0.80;99.90
36442;DHT22;73131;50.820;16.274;2024-01-16T07:18:35;-0.70;99.90
36442;DHT22;73131;50.820;16.274;2024-01-16T07:21:36;-0.70;99.90
36442;DHT22;73131;50.820;16.274;2024-01-16T07:24:39;-0.50;99.90
36442;DHT22;73131;50.820;16.274;2024-01-16T07:27:40;-0.20;99.90
36442;DHT22;73131;50.820;16.274;2024-01-16T07:30:43;0.00;99.90
36442;DHT22;73131;50.820;16.274;2024-01-16T07:33:44;0.20;99.90
36442;DHT22;73131;50.820;16.274;2024-01-16T07:36:51;0.40;99.90
36442;DHT22;73131;50.820;16.274;2024-01-16T07:39:53;0.50;99.90
36442;DHT22;73131;50.820;16.274;2024-01-16T07:42:54;0.50;99.90
36442;DHT22;73131;50.820;16.274;2024-01-16T07:45:58;0.40;99.90
36442;DHT22;73131;50.820;16.274;2024-01-16T07:49:01;0.20;99.90
36442;DHT22;73131;50.820;16.274;2024-01-16T07:52:02;0.10;99.90
36442;DHT22;73131;50.820;16.274;2024-01-16T07:55:03;-0.10;99.90
36442;DHT22;73131;50.820;16.274;2024-01-16T07:58:05;-0.20;99.90
36442;DHT22;73131;50.820;16.274;2024-01-16T08:01:09;-0.30;99.90
36442;DHT22;73131;50.820;16.274;2024-01-16T08:04:11;-0.40;99.90
36442;DHT22;73131;50.820;16.274;2024-01-16T08:07:11;-0.50;99.90
36442;DHT22;73131;50.820;16.274;2024-01-16T08:10:13;-0.50;99.90
36442;DHT22;73131;50.820;16.274;2024-01-16T08:13:16;-0.40;99.90
36442;DHT22;73131;50.820;16.274;2024-01-16T08:16:19;-0.40;99.90
36442;DHT22;73131;50.820;16.274;2024-01-16T08:19:21;-0.30;99.90
36442;DHT22;73131;50.820;16.274;2024-01-16T08:22:22;-0.30;99.90
36442;DHT22;73131;50.820;16.274;2024-01-16T08:25:28;-0.20;99.90
36442;DHT22;73131;50.820;16.274;2024-01-16T08:28:31;-0.10;99.90
36442;DHT22;73131;50.820;16.274;2024-01-16T08:31:35;0.10;99.90
36442;DHT22;73131;50.820;16.274;2024-01-16T08:34:38;0.30;99.90
36442;DHT22;73131;50.820;16.274;2024-01-16T08:37:41;0.40;99.90
36442;DHT22;73131;50.820;16.274;2024-01-16T08:40:45;0.70;99.90
36442;DHT22;73131;50.820;16.274;2024-01-16T08:43:46;1.00;99.90
36442;DHT22;73131;50.820;16.274;2024-01-16T08:46:49;1.10;99.90
36442;DHT22;73131;50.820;16.274;2024-01-16T08:49:53;1.10;99.90
36442;DHT22;73131;50.820;16.274;2024-01-16T08:52:56;1.10;99.90
36442;DHT22;73131;50.820;16.274;2024-01-16T08:55:59;1.10;99.90
36442;DHT22;73131;50.820;16.274;2024-01-16T08:59:03;1.10;99.90
36442;DHT22;73131;50.820;16.274;2024-01-16T09:02:04;1.10;99.90
36442;DHT22;73131;50.820;16.274;2024-01-16T09:05:05;1.20;99.90
36442;DHT22;73131;50.820;16.274;2024-01-16T09:08:07;1.30;99.90
36442;DHT22;73131;50.820;16.274;2024-01-16T09:11:10;1.40;99.90
36442;DHT22;73131;50.820;16.274;2024-01-16T09:14:13;1.40;99.90
36442;DHT22;73131;50.820;16.274;2024-01-16T09:17:14;2.20;99.90
36442;DHT22;73131;50.820;16.274;2024-01-16T09:20:18;3.70;99.90
36442;DHT22;73131;50.820;16.274;2024-01-16T09:23:19;4.50;99.90
36442;DHT22;73131;50.820;16.274;2024-01-16T09:26:20;4.40;99.90
36442;DHT22;73131;50.820;16.274;2024-01-16T09:29:21;4.10;99.90
36442;DHT22;73131;50.820;16.274;2024-01-16T09:32:23;4.20;99.90
36442;DHT22;73131;50.820;16.274;2024-01-16T09:35:24;4.40;99.90
36442;DHT22;73131;50.820;16.274;2024-01-16T09:38:25;4.90;99.90
36442;DHT22;73131;50.820;16.274;2024-01-16T09:41:29;5.30;99.90
36442;DHT22;73131;50.820;16.274;2024-01-16T09:44:33;5.50;99.90
36442;DHT22;73131;50.820;16.274;2024-01-16T09:47:37;5.40;99.90
36442;DHT22;73131;50.820;16.274;2024-01-16T09:50:41;5.60;99.90
36442;DHT22;73131;50.820;16.274;2024-01-16T09:53:42;5.50;99.90
36442;DHT22;73131;50.820;16.274;2024-01-16T09:56:48;5.80;99.90
36442;DHT22;73131;50.820;16.274;2024-01-16T09:59:52;5.60;99.90
36442;DHT22;73131;50.820;16.274;2024-01-16T10:02:53;5.30;99.90
36442;DHT22;73131;50.820;16.274;2024-01-16T10:06:00;4.70;99.90
36442;DHT22;73131;50.820;16.274;2024-01-16T10:09:05;4.30;99.90
36442;DHT22;73131;50.820;16.274;2024-01-16T10:12:08;4.10;99.90
36442;DHT22;73131;50.820;16.274;2024-01-16T10:15:11;4.50;99.90
36442;DHT22;73131;50.820;16.274;2024-01-16T10:18:26;6.50;99.90
36442;DHT22;73131;50.820;16.274;2024-01-16T10:21:27;9.90;99.90
36442;DHT22;73131;50.820;16.274;2024-01-16T10:24:32;11.20;94.80
36442;DHT22;73131;50.820;16.274;2024-01-16T10:27:40;9.50;98.20
36442;DHT22;73131;50.820;16.274;2024-01-16T10:30:41;7.50;99.90
36442;DHT22;73131;50.820;16.274;2024-01-16T10:33:44;6.10;99.90
36442;DHT22;73131;50.820;16.274;2024-01-16T10:36:45;5.20;99.90
36442;DHT22;73131;50.820;16.274;2024-01-16T10:39:50;4.50;99.90
36442;DHT22;73131;50.820;16.274;2024-01-16T10:43:00;3.80;99.90
36442;DHT22;73131;50.820;16.274;2024-01-16T10:46:15;3.20;99.90
36442;DHT22;73131;50.820;16.274;2024-01-16T10:49:17;2.90;99.90
36442;DHT22;73131;50.820;16.274;2024-01-16T10:52:18;2.70;99.90
36442;DHT22;73131;50.820;16.274;2024-01-16T10:55:23;2.60;99.90
36442;DHT22;73131;50.820;16.274;2024-01-16T10:58:24;2.40;99.90
36442;DHT22;73131;50.820;16.274;2024-01-16T11:01:31;2.20;99.90
36442;DHT22;73131;50.820;16.274;2024-01-16T11:04:35;2.20;99.90
36442;DHT22;73131;50.820;16.274;2024-01-16T11:07:43;2.00;99.90
36442;DHT22;73131;50.820;16.274;2024-01-16T11:10:47;1.90;99.90
36442;DHT22;73131;50.820;16.274;2024-01-16T11:13:52;2.00;99.90
36442;DHT22;73131;50.820;16.274;2024-01-16T11:16:55;2.60;99.90
36442;DHT22;73131;50.820;16.274;2024-01-16T11:19:59;3.00;99.90
36442;DHT22;73131;50.820;16.274;2024-01-16T11:23:07;2.90;99.90
36442;DHT22;73131;50.820;16.274;2024-01-16T11:26:31;2.70;99.90
36442;DHT22;73131;50.820;16.274;2024-01-16T11:29:39;2.60;99.90
36442;DHT22;73131;50.820;16.274;2024-01-16T11:32:42;2.40;99.90
36442;DHT22;73131;50.820;16.274;2024-01-16T11:35:48;2.20;99.90
36442;DHT22;73131;50.820;16.274;2024-01-16T11:38:55;2.40;99.90
36442;DHT22;73131;50.820;16.274;2024-01-16T11:41:59;2.80;99.90
36442;DHT22;73131;50.820;16.274;2024-01-16T11:45:00;3.50;99.90
36442;DHT22;73131;50.820;16.274;2024-01-16T11:48:15;4.10;99.90
36442;DHT22;73131;50.820;16.274;2024-01-16T11:51:23;4.50;99.90
36442;DHT22;73131;50.820;16.274;2024-01-16T11:54:27;4.50;99.90
36442;DHT22;73131;50.820;16.274;2024-01-16T12:01:30;4.30;99.90
36442;DHT22;73131;50.820;16.274;2024-01-16T12:04:34;4.20;99.90
36442;DHT22;73131;50.820;16.274;2024-01-16T12:08:04;3.90;99.90
36442;DHT22;73131;50.820;16.274;2024-01-16T12:11:11;3.50;99.90
36442;DHT22;73131;50.820;16.274;2024-01-16T12:14:12;3.40;99.90
36442;DHT22;73131;50.820;16.274;2024-01-16T12:17:13;3.50;99.90
36442;DHT22;73131;50.820;16.274;2024-01-16T12:20:22;3.40;99.90
36442;DHT22;73131;50.820;16.274;2024-01-16T12:23:24;3.50;99.90
36442;DHT22;73131;50.820;16.274;2024-01-16T12:26:27;3.60;99.90
36442;DHT22;73131;50.820;16.274;2024-01-16T12:29:28;3.40;99.90
36442;DHT22;73131;50.820;16.274;2024-01-16T12:32:30;3.30;99.90
36442;DHT22;73131;50.820;16.274;2024-01-16T12:35:37;3.30;99.90
36442;DHT22;73131;50.820;16.274;2024-01-16T12:38:38;3.20;99.90
36442;DHT22;73131;50.820;16.274;2024-01-16T12:41:43;3.20;99.90
36442;DHT22;73131;50.820;16.274;2024-01-16T12:44:48;3.20;99.90
36442;DHT22;73131;50.820;16.274;2024-01-16T12:47:55;3.20;99.90
36442;DHT22;73131;50.820;16.274;2024-01-16T12:51:02;3.30;99.90
36442;DHT22;73131;50.820;16.274;2024-01-16T12:54:15;3.30;99.90
36442;DHT22;73131;50.820;16.274;2024-01-16T12:57:22;3.30;99.90
36442;DHT22;73131;50.820;16.274;2024-01-16T13:00:23;3.20;99.90
36442;DHT22;73131;50.820;16.274;2024-01-16T13:03:29;3.00;99.90
36442;DHT22;73131;50.820;16.274;2024-01-16T13:06:33;2.90;99.90
36442;DHT22;73131;50.820;16.274;2024-01-16T13:09:37;2.70;99.90
36442;DHT22;73131;50.820;16.274;2024-01-16T13:12:40;2.50;99.90
36442;DHT22;73131;50.820;16.274;2024-01-16T13:15:46;2.40;99.90
36442;DHT22;73131;50.820;16.274;2024-01-16T13:19:00;2.30;99.90
36442;DHT22;73131;50.820;16.274;2024-01-16T13:22:02;2.20;99.90
36442;DHT22;73131;50.820;16.274;2024-01-16T13:25:05;2.20;99.90
36442;DHT22;73131;50.820;16.274;2024-01-16T13:28:06;2.20;99.90
36442;DHT22;73131;50.820;16.274;2024-01-16T13:31:11;2.10;99.90
36442;DHT22;73131;50.820;16.274;2024-01-16T13:34:12;2.10;99.90
36442;DHT22;73131;50.820;16.274;2024-01-16T13:37:20;2.10;99.90
36442;DHT22;73131;50.820;16.274;2024-01-16T13:40:26;2.10;99.90
36442;DHT22;73131;50.820;16.274;2024-01-16T13:43:27;2.10;99.90
36442;DHT22;73131;50.820;16.274;2024-01-16T13:46:28;2.00;99.90
36442;DHT22;73131;50.820;16.274;2024-01-16T13:49:32;2.00;99.90
36442;DHT22;73131;50.820;16.274;2024-01-16T13:52:37;1.90;99.90
36442;DHT22;73131;50.820;16.274;2024-01-16T13:55:41;1.70;99.90
36442;DHT22;73131;50.820;16.274;2024-01-16T13:58:44;1.70;99.90
36442;DHT22;73131;50.820;16.274;2024-01-16T14:01:46;1.70;99.90
36442;DHT22;73131;50.820;16.274;2024-01-16T14:04:49;1.70;99.90
36442;DHT22;73131;50.820;16.274;2024-01-16T14:07:51;1.60;99.90
36442;DHT22;73131;50.820;16.274;2024-01-16T14:10:54;1.60;99.90
36442;DHT22;73131;50.820;16.274;2024-01-16T14:13:58;1.70;99.90
36442;DHT22;73131;50.820;16.274;2024-01-16T14:17:01;1.60;99.90
36442;DHT22;73131;50.820;16.274;2024-01-16T14:20:03;1.60;99.90
36442;DHT22;73131;50.820;16.274;2024-01-16T14:23:10;1.50;99.90
36442;DHT22;73131;50.820;16.274;2024-01-16T14:26:13;1.50;99.90
36442;DHT22;73131;50.820;16.274;2024-01-16T14:29:18;1.30;99.90
36442;DHT22;73131;50.820;16.274;2024-01-16T14:32:19;1.30;99.90
36442;DHT22;73131;50.820;16.274;2024-01-16T14:35:23;1.10;99.90
36442;DHT22;73131;50.820;16.274;2024-01-16T14:38:27;1.50;99.90
36442;DHT22;73131;50.820;16.274;2024-01-16T14:41:31;1.10;99.90
36442;DHT22;73131;50.820;16.274;2024-01-16T14:44:37;0.90;99.90
36442;DHT22;73131;50.820;16.274;2024-01-16T14:47:40;0.90;99.90
36442;DHT22;73131;50.820;16.274;2024-01-16T14:50:44;0.80;99.90
36442;DHT22;73131;50.820;16.274;2024-01-16T14:53:52;0.80;99.90
36442;DHT22;73131;50.820;16.274;2024-01-16T14:56:57;0.70;99.90
36442;DHT22;73131;50.820;16.274;2024-01-16T14:59:58;0.70;99.90
36442;DHT22;73131;50.820;16.274;2024-01-16T15:03:02;0.60;99.90
36442;DHT22;73131;50.820;16.274;2024-01-16T15:06:07;0.60;99.90
36442;DHT22;73131;50.820;16.274;2024-01-16T15:09:08;0.60;99.90
36442;DHT22;73131;50.820;16.274;2024-01-16T15:12:12;0.50;99.90
36442;DHT22;73131;50.820;16.274;2024-01-16T15:15:15;0.40;99.90
36442;DHT22;73131;50.820;16.274;2024-01-16T15:18:16;0.40;99.90
36442;DHT22;73131;50.820;16.274;2024-01-16T15:21:20;0.30;99.90
36442;DHT22;73131;50.820;16.274;2024-01-16T15:24:21;0.30;99.90
36442;DHT22;73131;50.820;16.274;2024-01-16T15:27:30;0.20;99.90
36442;DHT22;73131;50.820;16.274;2024-01-16T15:30:33;0.10;99.90
36442;DHT22;73131;50.820;16.274;2024-01-16T15:33:36;0.00;99.90
36442;DHT22;73131;50.820;16.274;2024-01-16T15:36:37;0.00;99.90
36442;DHT22;73131;50.820;16.274;2024-01-16T15:39:40;-0.10;99.90
36442;DHT22;73131;50.820;16.274;2024-01-16T15:42:44;-0.20;99.90
36442;DHT22;73131;50.820;16.274;2024-01-16T15:45:55;-0.30;99.90
36442;DHT22;73131;50.820;16.274;2024-01-16T15:48:58;-0.30;99.90
36442;DHT22;73131;50.820;16.274;2024-01-16T15:52:01;-0.30;99.90
36442;DHT22;73131;50.820;16.274;2024-01-16T15:55:07;-0.40;99.90
36442;DHT22;73131;50.820;16.274;2024-01-16T15:58:11;-0.50;99.90
36442;DHT22;73131;50.820;16.274;2024-01-16T16:01:12;-0.60;99.90
36442;DHT22;73131;50.820;16.274;2024-01-16T16:04:13;-0.60;99.90
36442;DHT22;73131;50.820;16.274;2024-01-16T16:07:16;-0.70;99.90
36442;DHT22;73131;50.820;16.274;2024-01-16T16:10:18;-0.80;99.90
36442;DHT22;73131;50.820;16.274;2024-01-16T16:13:19;-0.80;99.90
36442;DHT22;73131;50.820;16.274;2024-01-16T16:16:20;-0.80;99.90
36442;DHT22;73131;50.820;16.274;2024-01-16T16:19:21;-0.90;99.90
36442;DHT22;73131;50.820;16.274;2024-01-16T16:22:25;-0.90;99.90
36442;DHT22;73131;50.820;16.274;2024-01-16T16:25:26;-1.00;99.90
36442;DHT22;73131;50.820;16.274;2024-01-16T16:28:27;-1.10;99.90
36442;DHT22;73131;50.820;16.274;2024-01-16T16:31:31;-1.10;99.90
36442;DHT22;73131;50.820;16.274;2024-01-16T16:34:32;-1.10;99.90
36442;DHT22;73131;50.820;16.274;2024-01-16T16:37:33;-1.10;99.90
36442;DHT22;73131;50.820;16.274;2024-01-16T16:40:36;-1.10;99.90
36442;DHT22;73131;50.820;16.274;2024-01-16T16:43:39;-1.20;99.90
36442;DHT22;73131;50.820;16.274;2024-01-16T16:46:43;-1.20;99.90
36442;DHT22;73131;50.820;16.274;2024-01-16T16:49:47;-1.20;99.90
36442;DHT22;73131;50.820;16.274;2024-01-16T16:52:52;-1.30;99.90
36442;DHT22;73131;50.820;16.274;2024-01-16T16:55:55;-1.30;99.90
36442;DHT22;73131;50.820;16.274;2024-01-16T16:58:57;-1.20;99.90
36442;DHT22;73131;50.820;16.274;2024-01-16T17:01:57;-1.20;99.90
36442;DHT22;73131;50.820;16.274;2024-01-16T17:04:59;-1.20;99.90
36442;DHT22;73131;50.820;16.274;2024-01-16T17:08:03;-1.20;99.90
36442;DHT22;73131;50.820;16.274;2024-01-16T17:11:08;-1.20;99.90
36442;DHT22;73131;50.820;16.274;2024-01-16T17:14:09;-1.20;99.90
36442;DHT22;73131;50.820;16.274;2024-01-16T17:17:11;-1.20;99.90
36442;DHT22;73131;50.820;16.274;2024-01-16T17:20:12;-1.20;99.90
36442;DHT22;73131;50.820;16.274;2024-01-16T17:23:17;-1.20;99.90
36442;DHT22;73131;50.820;16.274;2024-01-16T17:26:20;-1.10;99.90
36442;DHT22;73131;50.820;16.274;2024-01-16T17:29:21;-1.10;99.90
36442;DHT22;73131;50.820;16.274;2024-01-16T17:32:22;-1.10;99.90
36442;DHT22;73131;50.820;16.274;2024-01-16T17:35:25;-1.10;99.90
36442;DHT22;73131;50.820;16.274;2024-01-16T17:38:29;-1.10;99.90
36442;DHT22;73131;50.820;16.274;2024-01-16T17:41:30;-1.20;99.90
36442;DHT22;73131;50.820;16.274;2024-01-16T17:44:34;-1.20;99.90
36442;DHT22;73131;50.820;16.274;2024-01-16T17:47:48;-1.20;99.90
36442;DHT22;73131;50.820;16.274;2024-01-16T17:50:49;-1.20;99.90
36442;DHT22;73131;50.820;16.274;2024-01-16T17:53:50;-1.20;99.90
36442;DHT22;73131;50.820;16.274;2024-01-16T17:56:51;-1.20;99.90
36442;DHT22;73131;50.820;16.274;2024-01-16T17:59:52;-1.20;99.90
36442;DHT22;73131;50.820;16.274;2024-01-16T18:02:53;-1.10;99.90
36442;DHT22;73131;50.820;16.274;2024-01-16T18:05:55;-1.20;99.90
36442;DHT22;73131;50.820;16.274;2024-01-16T18:08:58;-1.20;99.90
36442;DHT22;73131;50.820;16.274;2024-01-16T18:12:03;-1.20;99.90
36442;DHT22;73131;50.820;16.274;2024-01-16T18:15:07;-1.20;99.90
36442;DHT22;73131;50.820;16.274;2024-01-16T18:18:13;-1.20;99.90
36442;DHT22;73131;50.820;16.274;2024-01-16T18:21:19;-1.30;99.90
36442;DHT22;73131;50.820;16.274;2024-01-16T18:24:23;-1.30;99.90
36442;DHT22;73131;50.820;16.274;2024-01-16T18:27:28;-1.30;99.90
36442;DHT22;73131;50.820;16.274;2024-01-16T18:30:29;-1.30;99.90
36442;DHT22;73131;50.820;16.274;2024-01-16T18:33:32;-1.40;99.90
36442;DHT22;73131;50.820;16.274;2024-01-16T18:36:36;-1.40;99.90
36442;DHT22;73131;50.820;16.274;2024-01-16T18:39:37;-1.40;99.90
36442;DHT22;73131;50.820;16.274;2024-01-16T18:42:44;-1.40;99.90
36442;DHT22;73131;50.820;16.274;2024-01-16T18:45:47;-1.40;99.90
36442;DHT22;73131;50.820;16.274;2024-01-16T18:48:51;-1.30;99.90
36442;DHT22;73131;50.820;16.274;2024-01-16T18:51:52;-1.30;99.90
36442;DHT22;73131;50.820;16.274;2024-01-16T18:54:53;-1.30;99.90
36442;DHT22;73131;50.820;16.274;2024-01-16T18:57:54;-1.30;99.90
36442;DHT22;73131;50.820;16.274;2024-01-16T19:01:00;-1.30;99.90
36442;DHT22;73131;50.820;16.274;2024-01-16T19:04:02;-1.30;99.90
36442;DHT22;73131;50.820;16.274;2024-01-16T19:07:07;-1.30;99.90
36442;DHT22;73131;50.820;16.274;2024-01-16T19:10:15;-1.20;99.90
36442;DHT22;73131;50.820;16.274;2024-01-16T19:13:20;-1.20;99.90